sensor_id;sensor_type;location;lat;lon;timestamp;pressure;altitude;pressure_sealevel;temperature;humidity
51781;BME280;37844;57.126;24.288;2022-12-18T00:00:41;102723.63;;;-11.22;100.00
51781;BME280;37844;57.126;24.288;2022-12-18T00:03:07;102724.50;;;-11.08;100.00
51781;BME280;37844;57.126;24.288;2022-12-18T00:05:33;102728.09;;;-11.06;100.00
51781;BME280;37844;57.126;24.288;2022-12-18T00:07:58;102720.53;;;-11.01;100.00
51781;BME280;37844;57.126;24.288;2022-12-18T00:10:23;102721.81;;;-10.84;100.00
51781;BME280;37844;57.126;24.288;2022-12-18T00:12:49;102727.00;;;-10.83;100.00
51781;BME280;37844;57.126;24.288;2022-12-18T00:15:14;102723.44;;;-10.85;100.00
51781;BME280;37844;57.126;24.288;2022-12-18T00:17:40;102717.66;;;-11.04;100.00
51781;BME280;37844;57.126;24.288;2022-12-18T00:20:06;102725.63;;;-10.81;100.00
51781;BME280;37844;57.126;24.288;2022-12-18T00:22:31;102740.13;;;-10.58;100.00
51781;BME280;37844;57.126;24.288;2022-12-18T00:24:57;102732.38;;;-10.54;100.00
51781;BME280;37844;57.126;24.288;2022-12-18T00:27:22;102723.53;;;-10.65;100.00
51781;BME280;37844;57.126;24.288;2022-12-18T00:29:48;102736.47;;;-10.55;100.00
51781;BME280;37844;57.126;24.288;2022-12-18T00:32:14;102737.84;;;-10.57;100.00
51781;BME280;37844;57.126;24.288;2022-12-18T00:34:39;102732.41;;;-10.67;100.00
51781;BME280;37844;57.126;24.288;2022-12-18T00:37:05;102732.88;;;-10.57;100.00
51781;BME280;37844;57.126;24.288;2022-12-18T00:39:30;102734.66;;;-10.56;100.00
51781;BME280;37844;57.126;24.288;2022-12-18T00:41:55;102735.66;;;-10.61;100.00
51781;BME280;37844;57.126;24.288;2022-12-18T00:44:39;102726.31;;;-10.69;100.00
51781;BME280;37844;57.126;24.288;2022-12-18T00:47:05;102731.38;;;-10.75;100.00
51781;BME280;37844;57.126;24.288;2022-12-18T00:49:30;102733.00;;;-10.62;100.00
51781;BME280;37844;57.126;24.288;2022-12-18T00:51:56;102731.38;;;-10.49;100.00
51781;BME280;37844;57.126;24.288;2022-12-18T00:54:21;102734.19;;;-10.53;100.00
51781;BME280;37844;57.126;24.288;2022-12-18T00:56:46;102735.38;;;-10.57;100.00
51781;BME280;37844;57.126;24.288;2022-12-18T00:59:12;102738.44;;;-10.52;100.00
51781;BME280;37844;57.126;24.288;2022-12-18T01:01:37;102728.66;;;-10.38;100.00
51781;BME280;37844;57.126;24.288;2022-12-18T01:04:03;102725.06;;;-10.40;100.00
51781;BME280;37844;57.126;24.288;2022-12-18T01:06:29;102724.47;;;-10.32;100.00
51781;BME280;37844;57.126;24.288;2022-12-18T01:08:55;102723.47;;;-10.39;100.00
51781;BME280;37844;57.126;24.288;2022-12-18T01:11:21;102721.72;;;-10.53;100.00
51781;BME280;37844;57.126;24.288;2022-12-18T01:13:47;102724.97;;;-10.47;100.00
51781;BME280;37844;57.126;24.288;2022-12-18T01:16:14;102715.91;;;-10.47;100.00
51781;BME280;37844;57.126;24.288;2022-12-18T01:18:40;102736.16;;;-10.51;100.00
51781;BME280;37844;57.126;24.288;2022-12-18T01:21:08;102731.78;;;-10.46;100.00
51781;BME280;37844;57.126;24.288;2022-12-18T01:23:34;102731.66;;;-10.40;100.00
51781;BME280;37844;57.126;24.288;2022-12-18T01:26:06;102732.53;;;-10.40;100.00
51781;BME280;37844;57.126;24.288;2022-12-18T01:28:32;102726.66;;;-10.40;100.00
51781;BME280;37844;57.126;24.288;2022-12-18T01:31:19;102726.38;;;-10.49;100.00
51781;BME280;37844;57.126;24.288;2022-12-18T01:33:45;102734.28;;;-10.46;100.00
51781;BME280;37844;57.126;24.288;2022-12-18T01:36:28;102726.47;;;-10.42;100.00
51781;BME280;37844;57.126;24.288;2022-12-18T01:38:55;102727.31;;;-10.49;100.00
51781;BME280;37844;57.126;24.288;2022-12-18T01:41:23;102719.41;;;-10.39;100.00
51781;BME280;37844;57.126;24.288;2022-12-18T01:43:51;102720.16;;;-10.33;100.00
51781;BME280;37844;57.126;24.288;2022-12-18T01:46:18;102721.56;;;-10.35;100.00
51781;BME280;37844;57.126;24.288;2022-12-18T01:48:46;102722.06;;;-10.37;100.00
51781;BME280;37844;57.126;24.288;2022-12-18T01:51:13;102727.09;;;-10.17;100.00
51781;BME280;37844;57.126;24.288;2022-12-18T01:53:40;102723.44;;;-10.07;100.00
51781;BME280;37844;57.126;24.288;2022-12-18T01:56:07;102724.91;;;-10.02;100.00
51781;BME280;37844;57.126;24.288;2022-12-18T02:01:08;102727.31;;;-9.96;100.00
51781;BME280;37844;57.126;24.288;2022-12-18T02:03:33;102731.13;;;-10.05;100.00
51781;BME280;37844;57.126;24.288;2022-12-18T02:08:33;102724.75;;;-10.03;100.00
51781;BME280;37844;57.126;24.288;2022-12-18T02:11:06;102729.47;;;-9.92;100.00
51781;BME280;37844;57.126;24.288;2022-12-18T02:16:43;102725.91;;;-9.94;100.00
51781;BME280;37844;57.126;24.288;2022-12-18T02:27:37;102735.16;;;-10.13;100.00
51781;BME280;37844;57.126;24.288;2022-12-18T02:30:03;102733.16;;;-10.15;100.00
51781;BME280;37844;57.126;24.288;2022-12-18T02:32:34;102738.47;;;-10.19;100.00
51781;BME280;37844;57.126;24.288;2022-12-18T02:35:02;102743.53;;;-10.12;100.00
51781;BME280;37844;57.126;24.288;2022-12-18T02:37:31;102730.25;;;-10.18;100.00
51781;BME280;37844;57.126;24.288;2022-12-18T02:39:58;102738.63;;;-10.18;100.00
51781;BME280;37844;57.126;24.288;2022-12-18T02:42:24;102751.00;;;-10.12;100.00
51781;BME280;37844;57.126;24.288;2022-12-18T02:44:51;102751.75;;;-9.93;100.00
51781;BME280;37844;57.126;24.288;2022-12-18T02:47:19;102756.81;;;-9.86;100.00
51781;BME280;37844;57.126;24.288;2022-12-18T02:50:00;102759.38;;;-9.79;100.00
51781;BME280;37844;57.126;24.288;2022-12-18T02:52:31;102755.59;;;-9.83;100.00
51781;BME280;37844;57.126;24.288;2022-12-18T02:57:43;102761.91;;;-9.92;100.00
51781;BME280;37844;57.126;24.288;2022-12-18T03:00:39;102758.94;;;-10.02;100.00
51781;BME280;37844;57.126;24.288;2022-12-18T03:03:14;102765.16;;;-10.06;100.00
51781;BME280;37844;57.126;24.288;2022-12-18T03:05:51;102768.53;;;-10.05;100.00
51781;BME280;37844;57.126;24.288;2022-12-18T03:08:27;102761.50;;;-10.15;100.00
51781;BME280;37844;57.126;24.288;2022-12-18T03:10:58;102760.09;;;-10.13;100.00
51781;BME280;37844;57.126;24.288;2022-12-18T03:13:30;102764.31;;;-9.99;100.00
51781;BME280;37844;57.126;24.288;2022-12-18T03:15:58;102746.91;;;-10.12;100.00
51781;BME280;37844;57.126;24.288;2022-12-18T03:21:14;102757.16;;;-10.03;100.00
51781;BME280;37844;57.126;24.288;2022-12-18T03:23:46;102766.22;;;-10.04;100.00
51781;BME280;37844;57.126;24.288;2022-12-18T03:26:16;102755.94;;;-9.99;100.00
51781;BME280;37844;57.126;24.288;2022-12-18T03:28:51;102755.72;;;-9.88;100.00
51781;BME280;37844;57.126;24.288;2022-12-18T03:31:18;102761.22;;;-9.91;100.00
51781;BME280;37844;57.126;24.288;2022-12-18T03:33:54;102761.50;;;-9.82;100.00
51781;BME280;37844;57.126;24.288;2022-12-18T03:36:21;102752.34;;;-10.02;100.00
51781;BME280;37844;57.126;24.288;2022-12-18T03:38:46;102762.81;;;-9.91;100.00
51781;BME280;37844;57.126;24.288;2022-12-18T03:41:37;102752.34;;;-9.89;100.00
51781;BME280;37844;57.126;24.288;2022-12-18T03:44:36;102758.44;;;-9.99;100.00
51781;BME280;37844;57.126;24.288;2022-12-18T03:49:35;102691.34;;;-10.31;100.00
51781;BME280;37844;57.126;24.288;2022-12-18T03:52:11;102750.78;;;-10.01;100.00
51781;BME280;37844;57.126;24.288;2022-12-18T03:54:39;102749.84;;;-10.02;100.00
51781;BME280;37844;57.126;24.288;2022-12-18T03:57:10;102748.69;;;-10.11;100.00
51781;BME280;37844;57.126;24.288;2022-12-18T03:59:38;102740.75;;;-10.21;100.00
51781;BME280;37844;57.126;24.288;2022-12-18T04:02:06;102749.19;;;-10.13;100.00
51781;BME280;37844;57.126;24.288;2022-12-18T04:04:34;102751.97;;;-10.05;100.00
51781;BME280;37844;57.126;24.288;2022-12-18T04:07:01;102740.66;;;-9.95;100.00
51781;BME280;37844;57.126;24.288;2022-12-18T04:09:27;102743.63;;;-9.85;100.00
51781;BME280;37844;57.126;24.288;2022-12-18T04:11:53;102750.28;;;-9.98;100.00
51781;BME280;37844;57.126;24.288;2022-12-18T04:14:18;102748.66;;;-9.98;100.00
51781;BME280;37844;57.126;24.288;2022-12-18T04:16:43;102752.25;;;-9.96;100.00
51781;BME280;37844;57.126;24.288;2022-12-18T04:19:09;102750.56;;;-10.03;100.00
51781;BME280;37844;57.126;24.288;2022-12-18T04:21:34;102760.59;;;-10.15;100.00
51781;BME280;37844;57.126;24.288;2022-12-18T04:24:00;102762.16;;;-10.16;100.00
51781;BME280;37844;57.126;24.288;2022-12-18T04:26:25;102759.50;;;-10.17;100.00
51781;BME280;37844;57.126;24.288;2022-12-18T04:28:50;102746.44;;;-10.22;100.00
51781;BME280;37844;57.126;24.288;2022-12-18T04:31:16;102752.09;;;-10.10;100.00
51781;BME280;37844;57.126;24.288;2022-12-18T04:33:41;102769.59;;;-9.90;100.00
51781;BME280;37844;57.126;24.288;2022-12-18T04:36:07;102782.06;;;-9.90;100.00
51781;BME280;37844;57.126;24.288;2022-12-18T04:38:32;102776.63;;;-9.81;100.00
51781;BME280;37844;57.126;24.288;2022-12-18T04:40:58;102764.38;;;-9.92;100.00
51781;BME280;37844;57.126;24.288;2022-12-18T04:43:23;102766.63;;;-10.00;100.00
51781;BME280;37844;57.126;24.288;2022-12-18T04:45:49;102776.69;;;-9.93;100.00
51781;BME280;37844;57.126;24.288;2022-12-18T04:48:14;102774.56;;;-9.90;100.00
51781;BME280;37844;57.126;24.288;2022-12-18T04:50:40;102781.53;;;-9.75;100.00
51781;BME280;37844;57.126;24.288;2022-12-18T04:53:05;102772.66;;;-9.86;100.00
51781;BME280;37844;57.126;24.288;2022-12-18T04:55:31;102774.03;;;-9.75;100.00
51781;BME280;37844;57.126;24.288;2022-12-18T04:57:56;102774.63;;;-9.70;100.00
51781;BME280;37844;57.126;24.288;2022-12-18T05:00:22;102768.78;;;-9.84;100.00
51781;BME280;37844;57.126;24.288;2022-12-18T05:02:47;102779.84;;;-9.82;100.00
51781;BME280;37844;57.126;24.288;2022-12-18T05:05:13;102782.72;;;-9.78;100.00
51781;BME280;37844;57.126;24.288;2022-12-18T05:07:38;102780.09;;;-9.73;100.00
51781;BME280;37844;57.126;24.288;2022-12-18T05:10:04;102781.31;;;-9.76;100.00
51781;BME280;37844;57.126;24.288;2022-12-18T05:12:33;102785.72;;;-9.81;100.00
51781;BME280;37844;57.126;24.288;2022-12-18T05:14:58;102780.97;;;-9.92;100.00
51781;BME280;37844;57.126;24.288;2022-12-18T05:17:24;102740.22;;;-10.06;100.00
51781;BME280;37844;57.126;24.288;2022-12-18T05:19:49;102782.44;;;-9.87;100.00
51781;BME280;37844;57.126;24.288;2022-12-18T05:22:15;102792.34;;;-9.94;100.00
51781;BME280;37844;57.126;24.288;2022-12-18T05:24:40;102786.03;;;-9.85;100.00
51781;BME280;37844;57.126;24.288;2022-12-18T05:27:05;102780.34;;;-9.84;100.00
51781;BME280;37844;57.126;24.288;2022-12-18T05:29:31;102783.97;;;-9.95;100.00
51781;BME280;37844;57.126;24.288;2022-12-18T05:31:56;102784.03;;;-9.88;100.00
51781;BME280;37844;57.126;24.288;2022-12-18T05:34:22;102784.16;;;-9.93;100.00
51781;BME280;37844;57.126;24.288;2022-12-18T05:36:47;102781.53;;;-9.88;100.00
51781;BME280;37844;57.126;24.288;2022-12-18T05:39:13;102789.09;;;-9.81;100.00
51781;BME280;37844;57.126;24.288;2022-12-18T05:41:38;102770.69;;;-9.88;100.00
51781;BME280;37844;57.126;24.288;2022-12-18T05:44:04;102789.91;;;-9.74;100.00
51781;BME280;37844;57.126;24.288;2022-12-18T05:46:29;102779.56;;;-9.90;100.00
51781;BME280;37844;57.126;24.288;2022-12-18T05:48:55;102786.47;;;-9.95;100.00
51781;BME280;37844;57.126;24.288;2022-12-18T05:51:22;102780.78;;;-9.94;100.00
51781;BME280;37844;57.126;24.288;2022-12-18T05:53:48;102791.34;;;-9.89;100.00
51781;BME280;37844;57.126;24.288;2022-12-18T05:56:16;102787.34;;;-9.94;100.00
51781;BME280;37844;57.126;24.288;2022-12-18T05:58:42;102793.19;;;-10.14;100.00
51781;BME280;37844;57.126;24.288;2022-12-18T06:03:33;102795.25;;;-10.04;100.00
51781;BME280;37844;57.126;24.288;2022-12-18T06:05:58;102797.06;;;-10.03;100.00
51781;BME280;37844;57.126;24.288;2022-12-18T06:08:24;102806.47;;;-10.08;100.00
51781;BME280;37844;57.126;24.288;2022-12-18T06:10:51;102804.13;;;-10.06;100.00
51781;BME280;37844;57.126;24.288;2022-12-18T06:13:18;102806.72;;;-9.99;100.00
51781;BME280;37844;57.126;24.288;2022-12-18T06:15:43;102811.44;;;-10.08;100.00
51781;BME280;37844;57.126;24.288;2022-12-18T06:18:08;102802.38;;;-10.07;100.00
51781;BME280;37844;57.126;24.288;2022-12-18T06:20:34;102799.06;;;-10.13;100.00
51781;BME280;37844;57.126;24.288;2022-12-18T06:23:01;102807.97;;;-10.15;100.00
51781;BME280;37844;57.126;24.288;2022-12-18T06:25:27;102817.34;;;-10.20;100.00
51781;BME280;37844;57.126;24.288;2022-12-18T06:27:53;102804.38;;;-10.17;100.00
51781;BME280;37844;57.126;24.288;2022-12-18T06:30:19;102818.75;;;-10.22;100.00
51781;BME280;37844;57.126;24.288;2022-12-18T06:32:44;102817.66;;;-10.24;100.00
51781;BME280;37844;57.126;24.288;2022-12-18T06:35:10;102817.22;;;-10.34;100.00
51781;BME280;37844;57.126;24.288;2022-12-18T06:37:35;102822.59;;;-10.31;100.00
51781;BME280;37844;57.126;24.288;2022-12-18T06:40:01;102816.50;;;-10.33;100.00
51781;BME280;37844;57.126;24.288;2022-12-18T06:42:26;102810.63;;;-10.34;100.00
51781;BME280;37844;57.126;24.288;2022-12-18T06:44:53;102816.56;;;-10.26;100.00
51781;BME280;37844;57.126;24.288;2022-12-18T06:47:18;102827.75;;;-10.30;100.00
51781;BME280;37844;57.126;24.288;2022-12-18T06:49:44;102823.25;;;-10.32;100.00
51781;BME280;37844;57.126;24.288;2022-12-18T06:52:09;102817.59;;;-10.31;100.00
51781;BME280;37844;57.126;24.288;2022-12-18T06:54:35;102827.75;;;-10.30;100.00
51781;BME280;37844;57.126;24.288;2022-12-18T06:57:00;102829.69;;;-10.34;100.00
51781;BME280;37844;57.126;24.288;2022-12-18T06:59:25;102834.84;;;-10.33;100.00
51781;BME280;37844;57.126;24.288;2022-12-18T07:01:51;102835.72;;;-10.32;100.00
51781;BME280;37844;57.126;24.288;2022-12-18T07:04:16;102842.69;;;-10.30;100.00
51781;BME280;37844;57.126;24.288;2022-12-18T07:06:42;102848.59;;;-10.29;100.00
51781;BME280;37844;57.126;24.288;2022-12-18T07:09:07;102852.50;;;-10.31;100.00
51781;BME280;37844;57.126;24.288;2022-12-18T07:11:33;102846.19;;;-10.22;100.00
51781;BME280;37844;57.126;24.288;2022-12-18T07:13:59;102853.63;;;-10.09;100.00
51781;BME280;37844;57.126;24.288;2022-12-18T07:16:24;102855.44;;;-10.08;100.00
51781;BME280;37844;57.126;24.288;2022-12-18T07:18:50;102854.81;;;-10.00;100.00
51781;BME280;37844;57.126;24.288;2022-12-18T07:21:17;102864.41;;;-10.03;100.00
51781;BME280;37844;57.126;24.288;2022-12-18T07:23:43;102871.78;;;-9.97;100.00
51781;BME280;37844;57.126;24.288;2022-12-18T07:26:13;102850.72;;;-9.99;100.00
51781;BME280;37844;57.126;24.288;2022-12-18T07:28:40;102858.50;;;-9.91;100.00
51781;BME280;37844;57.126;24.288;2022-12-18T07:31:07;102858.72;;;-9.89;100.00
51781;BME280;37844;57.126;24.288;2022-12-18T07:33:33;102862.78;;;-9.77;100.00
51781;BME280;37844;57.126;24.288;2022-12-18T07:36:03;102859.34;;;-9.77;100.00
51781;BME280;37844;57.126;24.288;2022-12-18T07:38:30;102863.44;;;-9.78;100.00
51781;BME280;37844;57.126;24.288;2022-12-18T07:41:22;102861.25;;;-9.69;100.00
51781;BME280;37844;57.126;24.288;2022-12-18T07:43:47;102863.63;;;-9.64;100.00
51781;BME280;37844;57.126;24.288;2022-12-18T07:46:14;102866.19;;;-9.56;100.00
51781;BME280;37844;57.126;24.288;2022-12-18T07:48:43;102868.91;;;-9.35;100.00
51781;BME280;37844;57.126;24.288;2022-12-18T07:51:11;102860.63;;;-9.08;100.00
51781;BME280;37844;57.126;24.288;2022-12-18T07:53:38;102860.44;;;-8.83;100.00
51781;BME280;37844;57.126;24.288;2022-12-18T07:56:06;102861.78;;;-8.72;100.00
51781;BME280;37844;57.126;24.288;2022-12-18T07:58:32;102857.78;;;-8.23;100.00
51781;BME280;37844;57.126;24.288;2022-12-18T08:01:05;102869.72;;;-7.86;100.00
51781;BME280;37844;57.126;24.288;2022-12-18T08:03:32;102871.56;;;-7.78;100.00
51781;BME280;37844;57.126;24.288;2022-12-18T08:06:02;102873.13;;;-7.30;100.00
51781;BME280;37844;57.126;24.288;2022-12-18T08:08:28;102876.38;;;-7.16;100.00
51781;BME280;37844;57.126;24.288;2022-12-18T08:10:54;102874.59;;;-7.03;100.00
51781;BME280;37844;57.126;24.288;2022-12-18T08:13:20;102876.75;;;-6.99;100.00
51781;BME280;37844;57.126;24.288;2022-12-18T08:15:45;102875.66;;;-7.08;100.00
51781;BME280;37844;57.126;24.288;2022-12-18T08:18:11;102869.41;;;-7.12;100.00
51781;BME280;37844;57.126;24.288;2022-12-18T08:20:36;102880.66;;;-7.22;100.00
51781;BME280;37844;57.126;24.288;2022-12-18T08:23:08;102884.25;;;-6.99;100.00
51781;BME280;37844;57.126;24.288;2022-12-18T08:25:34;102881.19;;;-7.11;100.00
51781;BME280;37844;57.126;24.288;2022-12-18T08:28:06;102846.84;;;-7.05;100.00
51781;BME280;37844;57.126;24.288;2022-12-18T08:30:31;102884.25;;;-6.49;100.00
51781;BME280;37844;57.126;24.288;2022-12-18T08:32:56;102881.47;;;-6.07;100.00
51781;BME280;37844;57.126;24.288;2022-12-18T08:35:22;102883.25;;;-5.69;100.00
51781;BME280;37844;57.126;24.288;2022-12-18T08:37:47;102879.22;;;-5.52;100.00
51781;BME280;37844;57.126;24.288;2022-12-18T08:40:13;102875.41;;;-6.16;100.00
51781;BME280;37844;57.126;24.288;2022-12-18T08:42:39;102880.75;;;-6.06;100.00
51781;BME280;37844;57.126;24.288;2022-12-18T08:45:33;102882.50;;;-5.98;100.00
51781;BME280;37844;57.126;24.288;2022-12-18T08:47:59;102882.19;;;-5.71;100.00
51781;BME280;37844;57.126;24.288;2022-12-18T08:50:24;102889.31;;;-5.60;100.00
51781;BME280;37844;57.126;24.288;2022-12-18T08:52:50;102885.66;;;-5.47;100.00
51781;BME280;37844;57.126;24.288;2022-12-18T08:55:15;102882.19;;;-5.34;100.00
51781;BME280;37844;57.126;24.288;2022-12-18T08:57:41;102887.28;;;-4.95;100.00
51781;BME280;37844;57.126;24.288;2022-12-18T09:00:07;102886.16;;;-4.90;100.00
51781;BME280;37844;57.126;24.288;2022-12-18T09:02:32;102888.78;;;-4.58;100.00
51781;BME280;37844;57.126;24.288;2022-12-18T09:04:58;102887.66;;;-4.76;100.00
51781;BME280;37844;57.126;24.288;2022-12-18T09:07:23;102897.38;;;-4.56;100.00
51781;BME280;37844;57.126;24.288;2022-12-18T09:09:49;102892.63;;;-4.30;100.00
51781;BME280;37844;57.126;24.288;2022-12-18T09:12:14;102891.50;;;-4.09;100.00
51781;BME280;37844;57.126;24.288;2022-12-18T09:14:40;102891.56;;;-4.48;100.00
51781;BME280;37844;57.126;24.288;2022-12-18T09:17:05;102888.78;;;-4.42;100.00
51781;BME280;37844;57.126;24.288;2022-12-18T09:19:31;102879.34;;;-4.13;100.00
51781;BME280;37844;57.126;24.288;2022-12-18T09:21:56;102884.44;;;-4.04;100.00
51781;BME280;37844;57.126;24.288;2022-12-18T09:24:23;102889.09;;;-4.00;100.00
51781;BME280;37844;57.126;24.288;2022-12-18T09:26:48;102884.53;;;-3.95;100.00
51781;BME280;37844;57.126;24.288;2022-12-18T09:29:17;102883.78;;;-3.78;100.00
51781;BME280;37844;57.126;24.288;2022-12-18T09:31:43;102882.63;;;-3.89;100.00
51781;BME280;37844;57.126;24.288;2022-12-18T09:34:08;102889.56;;;-3.79;100.00
51781;BME280;37844;57.126;24.288;2022-12-18T09:36:34;102885.03;;;-3.50;100.00
51781;BME280;37844;57.126;24.288;2022-12-18T09:38:59;102887.19;;;-3.37;100.00
51781;BME280;37844;57.126;24.288;2022-12-18T09:41:46;102879.88;;;-3.27;100.00
51781;BME280;37844;57.126;24.288;2022-12-18T09:46:55;102879.66;;;-4.10;100.00
51781;BME280;37844;57.126;24.288;2022-12-18T09:49:26;102868.28;;;-4.38;100.00
51781;BME280;37844;57.126;24.288;2022-12-18T09:54:26;102877.13;;;-4.10;100.00
51781;BME280;37844;57.126;24.288;2022-12-18T09:56:52;102878.44;;;-3.81;100.00
51781;BME280;37844;57.126;24.288;2022-12-18T09:59:31;102884.91;;;-4.15;100.00
51781;BME280;37844;57.126;24.288;2022-12-18T10:01:58;102879.97;;;-4.22;100.00
51781;BME280;37844;57.126;24.288;2022-12-18T10:04:24;102880.88;;;-4.22;100.00
51781;BME280;37844;57.126;24.288;2022-12-18T10:07:00;102879.72;;;-4.33;100.00
51781;BME280;37844;57.126;24.288;2022-12-18T10:09:36;102889.22;;;-4.46;100.00
51781;BME280;37844;57.126;24.288;2022-12-18T10:20:27;102879.28;;;-4.44;100.00
51781;BME280;37844;57.126;24.288;2022-12-18T10:23:05;102888.50;;;-4.29;100.00
51781;BME280;37844;57.126;24.288;2022-12-18T10:25:47;102880.94;;;-4.29;100.00
51781;BME280;37844;57.126;24.288;2022-12-18T10:28:16;102877.38;;;-4.15;100.00
51781;BME280;37844;57.126;24.288;2022-12-18T10:30:43;102883.88;;;-4.33;100.00
51781;BME280;37844;57.126;24.288;2022-12-18T10:33:17;102882.56;;;-4.30;100.00
51781;BME280;37844;57.126;24.288;2022-12-18T10:35:45;102866.56;;;-4.46;100.00
51781;BME280;37844;57.126;24.288;2022-12-18T10:40:57;102873.91;;;-4.63;100.00
51781;BME280;37844;57.126;24.288;2022-12-18T10:48:24;102874.34;;;-4.75;100.00
51781;BME280;37844;57.126;24.288;2022-12-18T10:50:51;102870.06;;;-4.76;100.00
51781;BME280;37844;57.126;24.288;2022-12-18T10:53:28;102867.44;;;-4.84;100.00
51781;BME280;37844;57.126;24.288;2022-12-18T10:55:56;102875.91;;;-4.68;100.00
51781;BME280;37844;57.126;24.288;2022-12-18T10:58:28;102869.91;;;-4.38;100.00
51781;BME280;37844;57.126;24.288;2022-12-18T11:01:17;102874.03;;;-4.23;100.00
51781;BME280;37844;57.126;24.288;2022-12-18T11:06:27;102872.00;;;-4.34;100.00
51781;BME280;37844;57.126;24.288;2022-12-18T11:09:04;102878.78;;;-4.10;100.00
51781;BME280;37844;57.126;24.288;2022-12-18T11:11:32;102869.97;;;-4.14;100.00
51781;BME280;37844;57.126;24.288;2022-12-18T11:14:12;102864.94;;;-4.14;100.00
51781;BME280;37844;57.126;24.288;2022-12-18T11:16:48;102859.50;;;-4.26;100.00
51781;BME280;37844;57.126;24.288;2022-12-18T11:21:55;102869.63;;;-4.49;100.00
51781;BME280;37844;57.126;24.288;2022-12-18T11:24:33;102876.63;;;-4.30;100.00
51781;BME280;37844;57.126;24.288;2022-12-18T11:27:04;102869.00;;;-4.23;100.00
51781;BME280;37844;57.126;24.288;2022-12-18T11:29:37;102867.78;;;-4.11;100.00
51781;BME280;37844;57.126;24.288;2022-12-18T11:32:26;102869.00;;;-4.23;100.00
51781;BME280;37844;57.126;24.288;2022-12-18T11:35:15;102866.25;;;-4.17;100.00
51781;BME280;37844;57.126;24.288;2022-12-18T11:37:47;102861.69;;;-4.29;100.00
51781;BME280;37844;57.126;24.288;2022-12-18T11:40:30;102864.47;;;-4.18;100.00
51781;BME280;37844;57.126;24.288;2022-12-18T11:45:38;102864.94;;;-4.30;100.00
51781;BME280;37844;57.126;24.288;2022-12-18T11:48:32;102867.19;;;-4.40;100.00
51781;BME280;37844;57.126;24.288;2022-12-18T11:51:01;102870.25;;;-4.19;100.00
51781;BME280;37844;57.126;24.288;2022-12-18T11:53:29;102876.00;;;-4.05;100.00
51781;BME280;37844;57.126;24.288;2022-12-18T12:01:16;102870.47;;;-4.25;100.00
51781;BME280;37844;57.126;24.288;2022-12-18T12:12:21;102873.94;;;-4.48;100.00
51781;BME280;37844;57.126;24.288;2022-12-18T12:17:45;102875.25;;;-4.35;100.00
51781;BME280;37844;57.126;24.288;2022-12-18T12:20:23;102873.16;;;-4.23;100.00
51781;BME280;37844;57.126;24.288;2022-12-18T12:22:54;102871.34;;;-4.40;100.00
51781;BME280;37844;57.126;24.288;2022-12-18T12:25:46;102870.28;;;-4.42;100.00
51781;BME280;37844;57.126;24.288;2022-12-18T12:39:23;102864.91;;;-4.61;100.00
51781;BME280;37844;57.126;24.288;2022-12-18T12:41:54;102862.22;;;-4.63;100.00
51781;BME280;37844;57.126;24.288;2022-12-18T12:44:50;102866.47;;;-4.78;100.00
51781;BME280;37844;57.126;24.288;2022-12-18T12:47:27;102870.56;;;-4.71;100.00
51781;BME280;37844;57.126;24.288;2022-12-18T12:49:54;102875.22;;;-4.90;100.00
51781;BME280;37844;57.126;24.288;2022-12-18T12:53:16;102879.13;;;-4.85;100.00
51781;BME280;37844;57.126;24.288;2022-12-18T12:55:30;102869.13;;;-4.92;100.00
51781;BME280;37844;57.126;24.288;2022-12-18T12:58:06;102868.41;;;-4.91;100.00
51781;BME280;37844;57.126;24.288;2022-12-18T13:00:41;102867.28;;;-4.86;100.00
51781;BME280;37844;57.126;24.288;2022-12-18T13:03:24;102865.41;;;-4.80;100.00
51781;BME280;37844;57.126;24.288;2022-12-18T13:06:00;102872.06;;;-4.80;100.00
51781;BME280;37844;57.126;24.288;2022-12-18T13:08:31;102867.03;;;-4.80;100.00
51781;BME280;37844;57.126;24.288;2022-12-18T13:10:58;102864.34;;;-4.82;100.00
51781;BME280;37844;57.126;24.288;2022-12-18T13:13:53;102857.34;;;-5.00;100.00
51781;BME280;37844;57.126;24.288;2022-12-18T13:16:20;102847.78;;;-4.96;100.00
51781;BME280;37844;57.126;24.288;2022-12-18T13:18:51;102854.41;;;-4.96;100.00
51781;BME280;37844;57.126;24.288;2022-12-18T13:23:54;102854.31;;;-5.05;100.00
51781;BME280;37844;57.126;24.288;2022-12-18T13:28:51;102868.09;;;-5.01;100.00
51781;BME280;37844;57.126;24.288;2022-12-18T13:36:46;102879.47;;;-5.05;100.00
51781;BME280;37844;57.126;24.288;2022-12-18T13:41:45;102884.44;;;-4.98;100.00
51781;BME280;37844;57.126;24.288;2022-12-18T13:44:19;102889.34;;;-5.06;100.00
51781;BME280;37844;57.126;24.288;2022-12-18T13:46:49;102869.38;;;-5.28;100.00
51781;BME280;37844;57.126;24.288;2022-12-18T13:49:24;102884.28;;;-5.29;100.00
51781;BME280;37844;57.126;24.288;2022-12-18T13:51:53;102881.53;;;-5.17;100.00
51781;BME280;37844;57.126;24.288;2022-12-18T13:56:53;102889.91;;;-5.09;100.00
51781;BME280;37844;57.126;24.288;2022-12-18T14:01:50;102882.19;;;-5.11;100.00
51781;BME280;37844;57.126;24.288;2022-12-18T14:04:20;102885.25;;;-5.13;100.00
51781;BME280;37844;57.126;24.288;2022-12-18T14:06:47;102876.44;;;-5.09;100.00
51781;BME280;37844;57.126;24.288;2022-12-18T14:09:15;102872.31;;;-5.09;100.00
51781;BME280;37844;57.126;24.288;2022-12-18T14:11:46;102862.94;;;-5.03;100.00
51781;BME280;37844;57.126;24.288;2022-12-18T14:14:15;102863.63;;;-5.04;100.00
51781;BME280;37844;57.126;24.288;2022-12-18T14:16:41;102871.13;;;-4.97;100.00